Time;durP1;ratioP1;P1;durP2;ratioP2;P2;SDS_P1;SDS_P2;PMS_P1;PMS_P2;Temp;Humidity;BMP_temperature;BMP_pressure;BME280_temperature;BME280_humidity;BME280_pressure;Samples;Min_cycle;Max_cycle;Signal;HPM_P1;HPM_P2
2023/01/12 00:01:37;;;;;;;14.37;3.57;;;;;;;-145.18;100.00;60484.78;5046332;28;20111;-70
2023/01/12 00:04:04;;;;;;;10.20;2.87;;;;;;;-145.18;100.00;60484.78;5048028;28;20120;-69
2023/01/12 00:06:31;;;;;;;9.60;2.10;;;;;;;-145.18;100.00;60484.78;5051773;28;20029;-70
2023/01/12 00:08:56;;;;;;;9.27;1.73;;;;;;;-145.18;100.00;60484.78;5036468;28;20022;-69
2023/01/12 00:11:22;;;;;;;8.47;2.20;;;;;;;-145.18;100.00;60484.78;5033891;28;20420;-69
2023/01/12 00:13:47;;;;;;;12.60;2.40;;;;;;;-145.18;100.00;60484.78;5052826;28;20036;-69
2023/01/12 00:16:34;;;;;;;11.07;2.93;;;;;;;-145.18;100.00;60484.78;5052504;28;20051;-69
2023/01/12 00:19:22;;;;;;;8.03;1.93;;;;;;;-145.18;100.00;60484.78;5053109;28;20041;-69
2023/01/12 00:21:58;;;;;;;6.50;1.57;;;;;;;-145.18;100.00;60484.78;5044482;28;20037;-69
2023/01/12 00:24:24;;;;;;;4.93;1.83;;;;;;;-145.18;100.00;60484.78;5052994;28;20476;-69
2023/01/12 00:26:50;;;;;;;9.50;2.10;;;;;;;-145.18;100.00;60484.78;5039030;28;20436;-70
2023/01/12 00:29:16;;;;;;;6.73;2.03;;;;;;;-145.18;100.00;60484.78;5040780;28;20033;-69
2023/01/12 00:31:42;;;;;;;11.67;3.10;;;;;;;-145.18;100.00;60484.78;5052721;28;20040;-69
2023/01/12 00:34:07;;;;;;;7.47;2.03;;;;;;;-145.18;100.00;60484.78;5052878;28;20036;-70
2023/01/12 00:36:32;;;;;;;6.30;1.80;;;;;;;-145.18;100.00;60484.78;5050916;28;20392;-69
2023/01/12 00:38:58;;;;;;;10.50;2.63;;;;;;;-145.18;100.00;60484.78;5052677;28;20021;-68
2023/01/12 00:46:51;;;;;;;9.23;2.07;;;;;;;-145.18;100.00;60484.78;5052048;28;20070;-67
2023/01/12 00:49:17;;;;;;;11.73;2.50;;;;;;;-145.18;100.00;60484.78;5050164;28;20061;-69
2023/01/12 00:51:42;;;;;;;14.40;2.80;;;;;;;-145.18;100.00;60484.78;5051858;28;20032;-68
2023/01/12 00:54:08;;;;;;;15.70;2.60;;;;;;;-145.18;100.00;60484.78;5052698;28;20035;-69
2023/01/12 00:56:34;;;;;;;13.13;2.57;;;;;;;-145.18;100.00;60484.78;5051669;28;20025;-70
2023/01/12 00:59:00;;;;;;;11.43;2.67;;;;;;;-145.18;100.00;60484.78;5042960;28;20053;-69
2023/01/12 01:01:25;;;;;;;11.17;3.10;;;;;;;-145.18;100.00;60484.78;5052022;28;20439;-69
2023/01/12 01:03:51;;;;;;;16.47;2.90;;;;;;;-145.18;100.00;60484.78;5051370;28;20155;-68
2023/01/12 01:06:16;;;;;;;11.37;2.80;;;;;;;-145.18;100.00;60484.78;5051653;28;20465;-70
2023/01/12 01:08:42;;;;;;;7.00;2.30;;;;;;;-145.18;100.00;60484.78;5051744;28;20115;-67
2023/01/12 01:11:09;;;;;;;9.57;2.20;;;;;;;-145.18;100.00;60484.78;5046560;28;20032;-67
2023/01/12 01:13:36;;;;;;;10.57;2.33;;;;;;;-145.18;100.00;60484.78;5051916;28;20082;-68
2023/01/12 01:16:04;;;;;;;12.60;2.70;;;;;;;-145.18;100.00;60484.78;5051490;28;20029;-69
2023/01/12 01:18:30;;;;;;;11.23;3.50;;;;;;;-145.18;100.00;60484.78;5051690;28;20032;-70
2023/01/12 01:20:56;;;;;;;8.50;2.30;;;;;;;-145.18;100.00;60484.78;5051883;28;20086;-69
2023/01/12 01:23:23;;;;;;;12.50;2.80;;;;;;;-145.18;100.00;60484.78;5051805;28;20123;-69
2023/01/12 01:25:48;;;;;;;10.30;2.57;;;;;;;-145.18;100.00;60484.78;5047070;28;20034;-69
2023/01/12 01:28:15;;;;;;;13.17;3.37;;;;;;;-145.18;100.00;60484.78;5048101;28;20025;-70
2023/01/12 01:30:40;;;;;;;14.53;3.20;;;;;;;-145.18;100.00;60484.78;5042137;28;20112;-70
2023/01/12 01:33:05;;;;;;;14.17;2.77;;;;;;;-145.18;100.00;60484.78;5051131;28;20109;-69
2023/01/12 01:35:31;;;;;;;9.10;2.17;;;;;;;-145.18;100.00;60484.78;5051667;28;20044;-67
2023/01/12 01:37:56;;;;;;;9.13;3.37;;;;;;;-145.18;100.00;60484.78;5051221;28;20112;-70
2023/01/12 01:40:22;;;;;;;9.90;2.53;;;;;;;-145.18;100.00;60484.78;5051853;28;20106;-69
2023/01/12 01:42:47;;;;;;;8.67;2.10;;;;;;;-145.18;100.00;60484.78;5051193;28;20404;-68
2023/01/12 01:45:15;;;;;;;6.93;1.87;;;;;;;-145.18;100.00;60484.78;5051809;28;20029;-69
2023/01/12 01:47:46;;;;;;;12.00;2.60;;;;;;;-145.18;100.00;60484.78;5051268;28;20151;-70
2023/01/12 01:50:25;;;;;;;11.32;2.33;;;;;;;-145.18;100.00;60484.78;5050782;28;20029;-70
2023/01/12 01:53:13;;;;;;;25.37;2.07;;;;;;;-145.18;100.00;60484.78;5049173;28;20031;-69
2023/01/12 01:55:50;;;;;;;6.27;1.60;;;;;;;-145.18;100.00;60484.78;5051383;28;20048;-69
2023/01/12 01:58:27;;;;;;;10.30;2.10;;;;;;;-145.18;100.00;60484.78;5051598;28;20032;-68
2023/01/12 02:00:52;;;;;;;5.53;1.90;;;;;;;-145.18;100.00;60484.78;5051531;28;20108;-69
2023/01/12 02:03:18;;;;;;;7.07;1.67;;;;;;;-145.18;100.00;60484.78;5042904;28;20111;-69
2023/01/12 02:05:47;;;;;;;6.97;1.40;;;;;;;-145.18;100.00;60484.78;5050754;28;20307;-68
2023/01/12 02:08:44;;;;;;;7.63;1.90;;;;;;;-145.18;100.00;60484.78;5051313;28;20476;-69
2023/01/12 02:16:19;;;;;;;7.23;1.90;;;;;;;-145.18;100.00;60484.78;5051021;28;20415;-69
2023/01/12 02:17:00;;;;;;;7.17;1.83;;;;;;;-145.18;100.00;60484.78;5046552;28;20055;-69
2023/01/12 02:19:42;;;;;;;4.17;1.77;;;;;;;-145.18;100.00;60484.78;5050983;28;20523;-69
2023/01/12 02:22:07;;;;;;;;;;;;;;;-145.18;100.00;60484.78;5051803;28;20044;-69
2023/01/12 02:24:48;;;;;;;6.77;1.77;;;;;;;-145.18;100.00;60484.78;5049488;28;19944;-69
2023/01/12 02:27:22;;;;;;;8.20;2.23;;;;;;;-145.18;100.00;60484.78;5049242;28;20480;-69
2023/01/12 02:30:12;;;;;;;5.13;1.80;;;;;;;-145.18;100.00;60484.78;5053585;28;20039;-70
2023/01/12 02:33:03;;;;;;;7.00;1.90;;;;;;;-145.18;100.00;60484.78;5040248;28;20029;-69
2023/01/12 02:35:42;;;;;;;8.83;2.10;;;;;;;-145.18;100.00;60484.78;5043524;28;20029;-68
2023/01/12 02:38:13;;;;;;;5.67;1.63;;;;;;;-145.18;100.00;60484.78;5054662;28;20507;-69
2023/01/12 02:41:02;;;;;;;6.68;2.17;;;;;;;-145.18;100.00;60484.78;5052050;28;20473;-69
2023/01/12 02:43:30;;;;;;;6.47;2.00;;;;;;;-145.18;100.00;60484.78;5054579;28;20500;-69
2023/01/12 02:46:10;;;;;;;6.30;1.90;;;;;;;-145.18;100.00;60484.78;5054322;28;20104;-69
2023/01/12 02:48:43;;;;;;;8.80;2.57;;;;;;;-145.18;100.00;60484.78;5054279;28;20485;-70
2023/01/12 02:51:21;;;;;;;8.07;2.43;;;;;;;-145.18;100.00;60484.78;5054749;28;20103;-69
2023/01/12 02:53:50;;;;;;;10.27;2.43;;;;;;;-145.18;100.00;60484.78;5053034;28;20032;-70
2023/01/12 02:56:38;;;;;;;7.43;2.30;;;;;;;-145.18;100.00;60484.78;5050693;28;20112;-69
2023/01/12 02:59:13;;;;;;;5.47;1.80;;;;;;;-145.18;100.00;60484.78;5053499;28;20664;-69
2023/01/12 03:01:40;;;;;;;6.27;2.03;;;;;;;-145.18;100.00;60484.78;5054096;28;20415;-69
2023/01/12 03:04:08;;;;;;;11.80;3.10;;;;;;;-145.18;100.00;60484.78;5050460;28;20029;-70
2023/01/12 03:06:42;;;;;;;10.10;2.53;;;;;;;-145.18;100.00;60484.78;5054263;28;20024;-70
2023/01/12 03:09:07;;;;;;;8.70;2.23;;;;;;;-145.18;100.00;60484.78;5050728;28;20070;-69
2023/01/12 03:11:36;;;;;;;6.87;2.57;;;;;;;-145.18;100.00;60484.78;5053909;28;20469;-69
2023/01/12 03:14:04;;;;;;;7.17;2.07;;;;;;;-145.18;100.00;60484.78;5053713;28;20024;-69
2023/01/12 03:16:34;;;;;;;7.40;2.07;;;;;;;-145.18;100.00;60484.78;5051157;28;20025;-69
2023/01/12 03:19:25;;;;;;;9.73;2.60;;;;;;;-145.18;100.00;60484.78;5054031;28;20075;-69
2023/01/12 03:21:54;;;;;;;9.18;2.40;;;;;;;-145.18;100.00;60484.78;5033945;28;20033;-69
2023/01/12 03:24:26;;;;;;;8.87;2.17;;;;;;;-145.18;100.00;60484.78;5037421;28;20473;-69
2023/01/12 03:26:59;;;;;;;6.80;2.25;;;;;;;-145.18;100.00;60484.78;5033826;28;20075;-69
2023/01/12 03:29:32;;;;;;;8.87;2.70;;;;;;;-145.18;100.00;60484.78;5034020;28;20041;-69
2023/01/12 03:31:58;;;;;;;9.37;2.07;;;;;;;-145.18;100.00;60484.78;5033628;28;20034;-70
2023/01/12 03:34:25;;;;;;;12.53;2.53;;;;;;;-145.18;100.00;60484.78;5034030;28;20033;-69
2023/01/12 03:37:11;;;;;;;8.23;2.50;;;;;;;-145.18;100.00;60484.78;5051900;28;20690;-69
2023/01/12 03:39:43;;;;;;;6.40;2.37;;;;;;;-145.18;100.00;60484.78;5053142;28;20021;-71
2023/01/12 03:42:59;;;;;;;11.20;2.75;;;;;;;-145.18;100.00;60484.78;5036955;28;20471;-72
2023/01/12 03:46:06;;;;;;;9.47;2.60;;;;;;;-145.18;100.00;60484.78;5010423;28;20040;-72
2023/01/12 03:48:48;;;;;;;7.27;2.57;;;;;;;-145.18;100.00;60484.78;5050573;28;20135;-72
2023/01/12 03:51:21;;;;;;;12.20;2.80;;;;;;;-145.18;100.00;60484.78;5038388;28;20043;-72
2023/01/12 03:53:48;;;;;;;18.30;3.63;;;;;;;-145.18;100.00;60484.78;5050486;28;20044;-71
2023/01/12 03:56:16;;;;;;;12.03;2.90;;;;;;;-145.18;100.00;60484.78;5052058;28;20028;-71
2023/01/12 03:58:42;;;;;;;13.07;3.10;;;;;;;-145.18;100.00;60484.78;5053535;28;20094;-71
2023/01/12 04:01:07;;;;;;;15.53;3.13;;;;;;;-145.18;100.00;60484.78;5052926;28;20512;-72
2023/01/12 04:03:33;;;;;;;9.73;2.90;;;;;;;-145.18;100.00;60484.78;5052973;28;20047;-72
2023/01/12 04:05:58;;;;;;;12.90;2.90;;;;;;;-145.18;100.00;60484.78;5052753;28;20055;-72
2023/01/12 04:08:23;;;;;;;10.53;3.03;;;;;;;-145.18;100.00;60484.78;5053047;28;20037;-72
2023/01/12 04:10:49;;;;;;;8.90;2.83;;;;;;;-145.18;100.00;60484.78;5053179;28;20017;-72
2023/01/12 04:13:14;;;;;;;12.30;3.43;;;;;;;-145.18;100.00;60484.78;5052852;28;20427;-72
2023/01/12 04:15:42;;;;;;;7.93;2.63;;;;;;;-145.18;100.00;60484.78;5042609;28;20064;-72
2023/01/12 04:18:09;;;;;;;8.10;2.73;;;;;;;-145.18;100.00;60484.78;5047887;28;20104;-72
2023/01/12 04:20:36;;;;;;;10.83;3.67;;;;;;;-145.18;100.00;60484.78;5053132;28;20477;-71
2023/01/12 04:23:01;;;;;;;10.10;3.90;;;;;;;-145.18;100.00;60484.78;5052705;28;20520;-71
2023/01/12 04:25:26;;;;;;;10.30;3.20;;;;;;;-145.18;100.00;60484.78;5053120;28;20017;-72
2023/01/12 04:27:55;;;;;;;11.53;3.43;;;;;;;-145.18;100.00;60484.78;5052710;28;20082;-72
2023/01/12 04:30:23;;;;;;;9.73;2.83;;;;;;;-145.18;100.00;60484.78;5052799;28;20174;-71
2023/01/12 04:32:50;;;;;;;6.63;2.80;;;;;;;-145.18;100.00;60484.78;5052756;28;20021;-72
2023/01/12 04:35:16;;;;;;;7.43;2.37;;;;;;;-145.18;100.00;60484.78;5050459;28;20024;-71
2023/01/12 04:37:42;;;;;;;13.80;2.87;;;;;;;-145.18;100.00;60484.78;5034731;28;20104;-72
2023/01/12 04:40:09;;;;;;;9.53;2.70;;;;;;;-145.18;100.00;60484.78;5046910;28;20520;-72
2023/01/12 04:45:19;;;;;;;7.80;2.47;;;;;;;-145.18;100.00;60484.78;5050370;28;20483;-72
2023/01/12 04:47:44;;;;;;;6.10;2.20;;;;;;;-145.18;100.00;60484.78;5046164;28;20116;-70
2023/01/12 04:50:10;;;;;;;7.17;2.00;;;;;;;-145.18;100.00;60484.78;5052168;28;20348;-72
2023/01/12 04:52:36;;;;;;;5.77;1.83;;;;;;;-145.18;100.00;60484.78;5051451;28;20055;-71
2023/01/12 04:55:04;;;;;;;7.97;1.63;;;;;;;-145.18;100.00;60484.78;5052326;28;20413;-71
2023/01/12 04:57:30;;;;;;;6.93;2.00;;;;;;;-145.18;100.00;60484.78;5052171;28;20020;-71
2023/01/12 04:59:55;;;;;;;5.73;2.00;;;;;;;-145.18;100.00;60484.78;5048800;28;20541;-71
2023/01/12 05:02:20;;;;;;;4.83;1.60;;;;;;;-145.18;100.00;60484.78;5051551;28;20025;-71
2023/01/12 05:04:47;;;;;;;7.27;2.03;;;;;;;-145.18;100.00;60484.78;5051841;28;20091;-72
2023/01/12 05:07:13;;;;;;;6.93;1.70;;;;;;;-145.18;100.00;60484.78;5051676;28;20033;-71
2023/01/12 05:12:23;;;;;;;7.57;1.80;;;;;;;-145.18;100.00;60484.78;5051578;28;20039;-71
2023/01/12 05:14:49;;;;;;;7.10;1.50;;;;;;;-145.18;100.00;60484.78;5051912;28;20021;-71
2023/01/12 05:17:15;;;;;;;7.37;2.00;;;;;;;-145.18;100.00;60484.78;5051035;28;20423;-72
2023/01/12 05:19:40;;;;;;;5.30;1.67;;;;;;;-145.18;100.00;60484.78;5045287;28;20025;-71
2023/01/12 05:22:06;;;;;;;10.13;2.13;;;;;;;-145.18;100.00;60484.78;5051609;28;20556;-72
2023/01/12 05:24:32;;;;;;;7.00;1.63;;;;;;;-145.18;100.00;60484.78;5040573;28;20029;-71
2023/01/12 05:26:59;;;;;;;7.10;2.13;;;;;;;-145.18;100.00;60484.78;5051721;28;20377;-72
2023/01/12 05:29:25;;;;;;;5.97;1.87;;;;;;;-145.18;100.00;60484.78;5051916;28;20025;-72
2023/01/12 05:31:50;;;;;;;8.27;2.23;;;;;;;-145.18;100.00;60484.78;5051283;28;20025;-72
2023/01/12 05:34:19;;;;;;;5.13;1.60;;;;;;;-145.18;100.00;60484.78;5048742;28;20025;-71
2023/01/12 05:36:48;;;;;;;10.00;2.07;;;;;;;-145.18;100.00;60484.78;5050814;28;20056;-71
2023/01/12 05:39:13;;;;;;;6.10;1.83;;;;;;;-145.18;100.00;60484.78;5051316;28;20036;-72
2023/01/12 05:43:48;;;;;;;6.83;1.63;;;;;;;-145.18;100.00;60484.78;5051817;28;20020;-71
2023/01/12 05:44:24;;;;;;;11.20;2.10;;;;;;;-145.18;100.00;60484.78;5046775;28;20041;-72
2023/01/12 05:46:49;;;;;;;9.80;1.67;;;;;;;-145.18;100.00;60484.78;5031601;28;20067;-70
2023/01/12 05:49:15;;;;;;;10.33;3.20;;;;;;;-145.18;100.00;60484.78;5031796;28;20021;-71
2023/01/12 05:51:40;;;;;;;6.23;1.70;;;;;;;-145.18;100.00;60484.78;5051487;28;20025;-72
2023/01/12 05:54:05;;;;;;;8.40;2.03;;;;;;;-145.18;100.00;60484.78;5051014;28;20021;-71
2023/01/12 05:56:32;;;;;;;7.30;1.97;;;;;;;-145.18;100.00;60484.78;5051389;28;20071;-71
2023/01/12 05:58:59;;;;;;;4.27;1.80;;;;;;;-145.18;100.00;60484.78;5051213;28;20092;-72
2023/01/12 06:01:26;;;;;;;6.60;2.00;;;;;;;-145.18;100.00;60484.78;5051145;28;20032;-72
2023/01/12 06:03:53;;;;;;;5.27;1.43;;;;;;;-145.18;100.00;60484.78;5052909;28;20029;-72
2023/01/12 06:06:20;;;;;;;5.83;1.77;;;;;;;-145.18;100.00;60484.78;5055485;28;20490;-72
2023/01/12 06:08:46;;;;;;;7.37;2.10;;;;;;;-145.18;100.00;60484.78;5055040;28;20021;-72
2023/01/12 06:13:55;;;;;;;11.07;2.50;;;;;;;-145.18;100.00;60484.78;5055117;28;20036;-72
2023/01/12 06:13:58;;;;;;;10.17;2.70;;;;;;;-145.18;100.00;60484.78;5054279;28;20017;-71
2023/01/12 06:16:25;;;;;;;8.30;2.27;;;;;;;-145.18;100.00;60484.78;5055682;28;20032;-72
2023/01/12 06:18:50;;;;;;;9.03;2.63;;;;;;;-145.18;100.00;60484.78;5052177;28;20021;-71
2023/01/12 06:21:16;;;;;;;8.80;2.20;;;;;;;-145.18;100.00;60484.78;5054874;28;20114;-71
2023/01/12 06:23:41;;;;;;;12.87;3.00;;;;;;;-145.18;100.00;60484.78;5054895;28;20027;-71
2023/01/12 06:26:08;;;;;;;6.77;2.73;;;;;;;-145.18;100.00;60484.78;5054943;28;20032;-71
2023/01/12 06:28:38;;;;;;;11.50;2.23;;;;;;;-145.18;100.00;60484.78;5054461;28;20018;-71
2023/01/12 06:31:06;;;;;;;8.20;2.00;;;;;;;-145.18;100.00;60484.78;5044055;28;20108;-71
2023/01/12 06:33:32;;;;;;;3.87;1.50;;;;;;;-145.18;100.00;60484.78;5040596;28;20031;-71
2023/01/12 06:35:58;;;;;;;6.10;1.30;;;;;;;-145.18;100.00;60484.78;5054163;28;20021;-71
2023/01/12 06:38:26;;;;;;;3.60;1.40;;;;;;;-145.18;100.00;60484.78;5054507;28;20029;-72
2023/01/12 06:40:51;;;;;;;4.27;1.43;;;;;;;-145.18;100.00;60484.78;5054685;28;20436;-71
2023/01/12 06:43:18;;;;;;;4.47;1.30;;;;;;;-145.18;100.00;60484.78;5054451;28;20032;-71
2023/01/12 06:45:44;;;;;;;3.43;1.03;;;;;;;-145.18;100.00;60484.78;5054739;28;20071;-70
2023/01/12 06:48:09;;;;;;;4.30;1.30;;;;;;;-145.18;100.00;60484.78;5054075;28;20473;-71
2023/01/12 06:50:35;;;;;;;4.97;1.43;;;;;;;-145.18;100.00;60484.78;5054124;28;20029;-71
2023/01/12 06:53:03;;;;;;;2.53;1.00;;;;;;;-145.18;100.00;60484.78;5053882;28;20309;-71
2023/01/12 06:55:28;;;;;;;4.87;1.40;;;;;;;-145.18;100.00;60484.78;5054413;28;20036;-71
2023/01/12 06:57:54;;;;;;;4.97;1.50;;;;;;;-145.18;100.00;60484.78;5054242;28;20017;-71
2023/01/12 07:00:20;;;;;;;5.33;1.50;;;;;;;-145.18;100.00;60484.78;5054062;28;20021;-71
2023/01/12 07:02:49;;;;;;;3.20;1.00;;;;;;;-145.18;100.00;60484.78;5053692;28;20100;-71
2023/01/12 07:05:15;;;;;;;3.33;1.00;;;;;;;-145.18;100.00;60484.78;5052469;28;20026;-70
2023/01/12 07:07:40;;;;;;;6.43;1.30;;;;;;;-145.18;100.00;60484.78;5050311;28;20124;-71
2023/01/12 07:10:06;;;;;;;6.90;1.67;;;;;;;-145.18;100.00;60484.78;5053902;28;20433;-70
2023/01/12 07:12:31;;;;;;;2.40;0.93;;;;;;;-145.18;100.00;60484.78;5054037;28;20028;-71
2023/01/12 07:14:58;;;;;;;4.30;1.23;;;;;;;-145.18;100.00;60484.78;5049972;28;20029;-70
2023/01/12 07:17:23;;;;;;;4.23;1.10;;;;;;;-145.18;100.00;60484.78;5054027;28;20265;-71
2023/01/12 07:19:49;;;;;;;5.77;1.30;;;;;;;-145.18;100.00;60484.78;5053896;28;20027;-71
2023/01/12 07:22:14;;;;;;;3.50;1.20;;;;;;;-145.18;100.00;60484.78;5052547;28;20487;-72
2023/01/12 07:24:40;;;;;;;3.97;1.77;;;;;;;-145.18;100.00;60484.78;5052883;28;20032;-72
2023/01/12 07:27:05;;;;;;;4.30;1.27;;;;;;;-145.18;100.00;60484.78;5048691;28;20029;-70
2023/01/12 07:29:30;;;;;;;4.47;1.40;;;;;;;-145.18;100.00;60484.78;5052150;28;20029;-71
2023/01/12 07:31:56;;;;;;;5.63;1.63;;;;;;;-145.18;100.00;60484.78;5052669;28;20103;-72
2023/01/12 07:34:21;;;;;;;6.47;1.67;;;;;;;-145.18;100.00;60484.78;5051689;28;20124;-71
2023/01/12 07:36:48;;;;;;;5.10;2.23;;;;;;;-145.18;100.00;60484.78;5051755;28;20029;-71
2023/01/12 07:39:14;;;;;;;4.70;1.40;;;;;;;-145.18;100.00;60484.78;5053671;28;20020;-71
2023/01/12 07:44:23;;;;;;;3.17;1.37;;;;;;;-145.18;100.00;60484.78;5053692;28;20059;-72
2023/01/12 07:46:49;;;;;;;1.97;1.10;;;;;;;-145.18;100.00;60484.78;5053741;28;20020;-72
2023/01/12 07:49:14;;;;;;;5.13;1.57;;;;;;;-145.18;100.00;60484.78;5041845;28;20025;-72
2023/01/12 07:51:40;;;;;;;2.70;1.37;;;;;;;-145.18;100.00;60484.78;5048872;28;20048;-71
2023/01/12 07:54:05;;;;;;;4.93;1.90;;;;;;;-145.18;100.00;60484.78;5034768;28;20026;-71
2023/01/12 07:56:30;;;;;;;3.77;1.37;;;;;;;-145.18;100.00;60484.78;5033227;28;20033;-72
2023/01/12 07:58:56;;;;;;;5.33;1.80;;;;;;;-145.18;100.00;60484.78;5033428;28;20017;-71
2023/01/12 08:01:21;;;;;;;3.43;1.50;;;;;;;-145.18;100.00;60484.78;5033516;28;20021;-71
2023/01/12 08:03:47;;;;;;;4.77;1.60;;;;;;;-145.18;100.00;60484.78;5033172;28;20420;-71
2023/01/12 08:06:13;;;;;;;4.77;1.53;;;;;;;-145.18;100.00;60484.78;5038462;28;20029;-72
2023/01/12 08:08:38;;;;;;;4.87;1.57;;;;;;;-145.18;100.00;60484.78;5045755;28;20546;-71
2023/01/12 08:11:09;;;;;;;3.50;1.30;;;;;;;-145.18;100.00;60484.78;5052974;28;20043;-72
2023/01/12 08:13:35;;;;;;;4.18;1.75;;;;;;;-145.18;100.00;60484.78;5052344;28;20028;-71
2023/01/12 08:16:07;;;;;;;2.47;1.17;;;;;;;-145.18;100.00;60484.78;5038404;28;20439;-72
2023/01/12 08:18:40;;;;;;;4.30;1.93;;;;;;;-145.18;100.00;60484.78;5052848;28;20376;-71
2023/01/12 08:21:11;;;;;;;3.43;1.30;;;;;;;-145.18;100.00;60484.78;5039750;28;20495;-71
2023/01/12 08:23:43;;;;;;;5.82;1.45;;;;;;;-145.18;100.00;60484.78;5052881;28;20052;-69
2023/01/12 08:26:18;;;;;;;3.05;1.30;;;;;;;-145.18;100.00;60484.78;5050953;28;20029;-70
2023/01/12 08:28:48;;;;;;;3.53;1.33;;;;;;;-145.18;100.00;60484.78;5044229;28;20053;-72
2023/01/12 08:31:16;;;;;;;4.93;1.33;;;;;;;-145.18;100.00;60484.78;5048406;28;20029;-70
2023/01/12 08:33:42;;;;;;;5.23;2.07;;;;;;;-145.18;100.00;60484.78;5042425;28;20035;-71
2023/01/12 08:36:11;;;;;;;3.37;1.30;;;;;;;-145.18;100.00;60484.78;5051990;28;20100;-70
2023/01/12 08:38:38;;;;;;;4.60;1.63;;;;;;;-145.18;100.00;60484.78;5051737;28;20418;-70
2023/01/12 08:46:52;;;;;;;3.07;1.30;;;;;;;-145.18;100.00;60484.78;4990592;28;20132;-71
2023/01/12 08:49:20;;;;;;;3.20;1.10;;;;;;;-145.18;100.00;60484.78;4990644;28;20062;-70
2023/01/12 08:51:46;;;;;;;3.20;1.40;;;;;;;-145.18;100.00;60484.78;4990736;28;20558;-71
2023/01/12 08:54:14;;;;;;;2.47;1.20;;;;;;;-145.18;100.00;60484.78;4990682;28;20041;-70
2023/01/12 08:56:39;;;;;;;2.37;1.20;;;;;;;-145.18;100.00;60484.78;4990765;28;20026;-70
2023/01/12 08:59:05;;;;;;;3.70;1.27;;;;;;;-145.18;100.00;60484.78;4990652;28;20034;-70
2023/01/12 09:01:31;;;;;;;3.70;1.17;;;;;;;-145.18;100.00;60484.78;4990623;28;20037;-70
2023/01/12 09:03:57;;;;;;;5.63;1.40;;;;;;;-145.18;100.00;60484.78;4990195;28;20065;-71
2023/01/12 09:06:28;;;;;;;3.07;1.20;;;;;;;-145.18;100.00;60484.78;4990588;28;20438;-71
2023/01/12 09:08:59;;;;;;;2.70;1.15;;;;;;;-145.18;100.00;60484.78;4990006;28;20026;-71
2023/01/12 09:11:26;;;;;;;2.87;1.00;;;;;;;-145.18;100.00;60484.78;4990379;28;20422;-70
2023/01/12 09:13:51;;;;;;;2.60;1.10;;;;;;;-145.18;100.00;60484.78;4990434;28;20049;-71
2023/01/12 09:16:18;;;;;;;2.70;1.17;;;;;;;-145.18;100.00;60484.78;4990515;28;20061;-71
2023/01/12 09:18:44;;;;;;;5.27;1.23;;;;;;;-145.18;100.00;60484.78;5049502;28;20033;-71
2023/01/12 09:21:13;;;;;;;2.90;1.10;;;;;;;-145.18;100.00;60484.78;5050741;28;20390;-71
2023/01/12 09:23:39;;;;;;;1.80;0.93;;;;;;;-145.18;100.00;60484.78;5047586;28;20039;-71
2023/01/12 09:26:06;;;;;;;2.53;0.90;;;;;;;-145.18;100.00;60484.78;5032279;28;20018;-71
2023/01/12 09:28:33;;;;;;;3.33;1.00;;;;;;;-145.18;100.00;60484.78;5031648;28;20029;-70
2023/01/12 09:31:10;;;;;;;3.40;1.00;;;;;;;-145.18;100.00;60484.78;5032129;28;20021;-71
2023/01/12 09:33:38;;;;;;;4.90;1.30;;;;;;;-145.18;100.00;60484.78;5032031;28;20061;-71
2023/01/12 09:36:06;;;;;;;1.53;0.90;;;;;;;-145.18;100.00;60484.78;5033845;28;20040;-70
2023/01/12 09:38:34;;;;;;;2.60;0.87;;;;;;;-145.18;100.00;60484.78;5031658;28;20434;-71
2023/01/12 09:41:07;;;;;;;2.27;1.00;;;;;;;-145.18;100.00;60484.78;5032004;28;20370;-70
2023/01/12 09:49:07;;;;;;;2.33;0.90;;;;;;;-145.18;100.00;60484.78;5031755;28;20168;-71
2023/01/12 09:51:38;;;;;;;3.23;0.80;;;;;;;-145.18;100.00;60484.78;5031723;28;20499;-70
2023/01/12 09:54:04;;;;;;;2.88;1.02;;;;;;;-145.18;100.00;60484.78;5031855;28;20388;-70
2023/01/12 09:56:39;;;;;;;2.60;0.90;;;;;;;-145.18;100.00;60484.78;5034266;28;20546;-70
2023/01/12 09:59:16;;;;;;;2.20;0.80;;;;;;;-145.18;100.00;60484.78;5031556;28;20014;-71
2023/01/12 10:01:42;;;;;;;1.00;0.60;;;;;;;-145.18;100.00;60484.78;5039142;28;20035;-68
2023/01/12 10:04:08;;;;;;;1.80;0.80;;;;;;;-145.18;100.00;60484.78;5051237;28;20029;-71
2023/01/12 10:06:34;;;;;;;1.87;0.90;;;;;;;-145.18;100.00;60484.78;5051217;28;20480;-70
2023/01/12 10:09:05;;;;;;;4.70;1.00;;;;;;;-145.18;100.00;60484.78;5033278;28;20100;-71
2023/01/12 10:11:45;;;;;;;2.72;1.02;;;;;;;-145.18;100.00;60484.78;5031379;28;20033;-70
2023/01/12 10:14:28;;;;;;;2.40;0.90;;;;;;;-145.18;100.00;60484.78;5031692;28;20537;-70
2023/01/12 10:17:35;;;;;;;1.93;0.70;;;;;;;-145.18;100.00;60484.78;5031583;28;20025;-71
2023/01/12 10:20:01;;;;;;;2.17;0.70;;;;;;;-145.18;100.00;60484.78;5042915;28;20067;-70
2023/01/12 10:22:38;;;;;;;2.63;0.80;;;;;;;-145.18;100.00;60484.78;5039614;28;20064;-70
2023/01/12 10:25:24;;;;;;;2.67;0.80;;;;;;;-145.18;100.00;60484.78;5049445;28;20033;-71
2023/01/12 10:27:53;;;;;;;2.40;0.80;;;;;;;-145.18;100.00;60484.78;5048092;28;20039;-71
2023/01/12 10:30:31;;;;;;;1.20;0.60;;;;;;;-145.18;100.00;60484.78;5051269;28;20102;-71
2023/01/12 10:33:20;;;;;;;1.53;0.60;;;;;;;-145.18;100.00;60484.78;5050490;28;20021;-70
2023/01/12 10:36:16;;;;;;;2.57;0.70;;;;;;;-145.18;100.00;60484.78;5051061;28;20388;-70
2023/01/12 10:38:56;;;;;;;1.90;0.70;;;;;;;-145.18;100.00;60484.78;5043772;28;20021;-71
2023/01/12 10:41:25;;;;;;;1.70;0.80;;;;;;;-145.18;100.00;60484.78;5045706;28;20128;-70
2023/01/12 10:43:59;;;;;;;1.77;0.87;;;;;;;-145.18;100.00;60484.78;5051030;28;20032;-70
2023/01/12 10:46:26;;;;;;;2.30;0.70;;;;;;;-145.18;100.00;60484.78;5050639;28;20066;-71
2023/01/12 10:48:53;;;;;;;2.30;0.90;;;;;;;-145.18;100.00;60484.78;5030732;28;20038;-71
2023/01/12 10:51:23;;;;;;;1.73;0.80;;;;;;;-145.18;100.00;60484.78;5036228;28;20393;-71
2023/01/12 10:54:18;;;;;;;2.23;0.97;;;;;;;-145.18;100.00;60484.78;5034250;28;20088;-70
2023/01/12 10:57:18;;;;;;;2.10;0.83;;;;;;;-145.18;100.00;60484.78;5050265;28;20033;-70
2023/01/12 10:59:51;;;;;;;2.97;1.20;;;;;;;-145.18;100.00;60484.78;5040348;28;20029;-70
2023/01/12 11:02:16;;;;;;;1.53;0.63;;;;;;;-145.18;100.00;60484.78;5053090;28;20025;-70
2023/01/12 11:04:46;;;;;;;1.57;0.70;;;;;;;-145.18;100.00;60484.78;5053831;28;20098;-71
2023/01/12 11:07:18;;;;;;;1.93;0.93;;;;;;;-145.18;100.00;60484.78;5054093;28;20029;-71
2023/01/12 11:09:44;;;;;;;;;;;;;;;-145.18;100.00;60484.78;5054170;28;20017;-70
2023/01/12 11:12:28;;;;;;;2.03;0.90;;;;;;;-145.18;100.00;60484.78;5052706;28;19962;-71
2023/01/12 11:15:00;;;;;;;2.37;0.70;;;;;;;-145.18;100.00;60484.78;5053984;28;20025;-70
2023/01/12 11:17:42;;;;;;;0.97;0.60;;;;;;;-145.18;100.00;60484.78;5050963;28;20542;-71
2023/01/12 11:20:21;;;;;;;1.35;0.75;;;;;;;-145.18;100.00;60484.78;5049258;28;20029;-70
2023/01/12 11:22:50;;;;;;;2.70;0.80;;;;;;;-145.18;100.00;60484.78;5052514;28;20488;-71
2023/01/12 11:25:21;;;;;;;2.20;0.90;;;;;;;-145.18;100.00;60484.78;5052716;28;20021;-70
2023/01/12 11:27:54;;;;;;;1.77;0.98;;;;;;;-145.18;100.00;60484.78;5043636;28;20030;-70
2023/01/12 11:30:39;;;;;;;1.40;0.80;;;;;;;-145.18;100.00;60484.78;5052271;28;20036;-71
2023/01/12 11:33:10;;;;;;;1.30;0.90;;;;;;;-145.18;100.00;60484.78;5040773;28;20051;-71
2023/01/12 11:35:46;;;;;;;2.72;0.90;;;;;;;-145.18;100.00;60484.78;5048782;28;20025;-70
2023/01/12 11:38:37;;;;;;;1.60;0.90;;;;;;;-145.18;100.00;60484.78;5049708;28;20387;-71
2023/01/12 11:41:08;;;;;;;1.67;0.80;;;;;;;-145.18;100.00;60484.78;5011053;28;20507;-70
2023/01/12 11:44:01;;;;;;;2.40;1.10;;;;;;;-145.18;100.00;60484.78;5052651;28;20032;-70
2023/01/12 11:46:38;;;;;;;2.77;1.30;;;;;;;-145.18;100.00;60484.78;5053587;28;20029;-71
2023/01/12 11:49:32;;;;;;;2.37;1.13;;;;;;;-145.18;100.00;60484.78;5053609;28;20358;-71
2023/01/12 11:52:01;;;;;;;3.10;1.37;;;;;;;-145.18;100.00;60484.78;5049160;28;20021;-71